createdAt,value
2019-02-26T00:04:45.970Z,21.8
2019-02-26T00:10:01.995Z,21.8
2019-02-26T00:15:04.496Z,21.7
2019-02-26T00:20:15.632Z,21.7
2019-02-26T00:25:20.395Z,21.7
2019-02-26T00:30:19.713Z,21.7
2019-02-26T00:35:28.700Z,21.6
2019-02-26T00:40:40.980Z,21.7
2019-02-26T00:45:40.284Z,21.6
2019-02-26T00:50:46.005Z,21.6
2019-02-26T00:56:01.011Z,21.6
2019-02-26T01:00:59.552Z,21.6
2019-02-26T01:06:09.094Z,21.8
2019-02-26T01:11:14.737Z,21.8
2019-02-26T01:16:20.298Z,21.8
2019-02-26T01:21:33.947Z,21.7
2019-02-26T01:26:32.813Z,21.7
2019-02-26T01:31:38.718Z,21.6
2019-02-26T01:36:49.560Z,21.6
2019-02-26T01:41:56.194Z,21.6
2019-02-26T01:47:00.651Z,21.5
2019-02-26T01:51:59.899Z,21.6
2019-02-26T01:57:09.710Z,21.5
2019-02-26T02:02:23.188Z,21.5
2019-02-26T02:07:28.641Z,21.5
2019-02-26T02:12:34.374Z,21.5
2019-02-26T02:17:38.209Z,21.5
2019-02-26T02:22:42.098Z,21.5
2019-02-26T02:27:38.959Z,21.5
2019-02-26T02:32:44.008Z,21.4
2019-02-26T02:37:45.129Z,21.4
2019-02-26T02:42:51.141Z,21.4
2019-02-26T02:48:06.205Z,21.4
2019-02-26T02:53:06.574Z,21.4
2019-02-26T02:58:21.141Z,21.4
2019-02-26T03:03:20.572Z,21.4
2019-02-26T03:08:25.756Z,21.4
2019-02-26T03:13:31.108Z,21.4
2019-02-26T03:18:36.334Z,21.4
2019-02-26T03:23:46.587Z,21.4
2019-02-26T03:28:51.318Z,21.4
2019-02-26T03:33:48.441Z,21.4
2019-02-26T03:39:02.799Z,21.3
2019-02-26T03:44:06.240Z,21.3
2019-02-26T03:49:05.457Z,21.3
2019-02-26T03:54:10.636Z,21.3
2019-02-26T03:59:15.960Z,21.3
2019-02-26T04:04:28.770Z,21.3
2019-02-26T04:09:28.333Z,21.3
2019-02-26T04:14:33.360Z,21.3
2019-02-26T04:19:38.354Z,21.3
2019-02-26T04:24:39.948Z,21.3
2019-02-26T04:29:50.271Z,21.2
2019-02-26T04:34:45.547Z,21.2
2019-02-26T04:39:53.340Z,21.3
2019-02-26T04:45:08.862Z,21.7
2019-02-26T04:50:10.121Z,21.9
2019-02-26T04:55:05.985Z,21.9
2019-02-26T05:00:12.723Z,22.1
2019-02-26T05:05:17.932Z,22.1
2019-02-26T05:10:32.237Z,22.3
2019-02-26T05:15:34.677Z,22.3
2019-02-26T05:20:49.446Z,22.4
2019-02-26T05:25:46.698Z,22.5
2019-02-26T05:30:53.156Z,22.6
2019-02-26T05:35:58.439Z,22.6
2019-02-26T05:41:03.528Z,22.7
2019-02-26T05:46:08.789Z,22.7
2019-02-26T05:51:14.256Z,22.7
2019-02-26T05:56:23.925Z,22.6
2019-02-26T06:01:29.605Z,22.5
2019-02-26T06:06:34.784Z,22.5
2019-02-26T06:11:50.049Z,22.4
2019-02-26T06:16:55.697Z,22.4
2019-02-26T06:21:57.633Z,22.4
2019-02-26T06:26:52.140Z,22.4
2019-02-26T06:31:57.680Z,22.3
2019-02-26T06:37:05.073Z,22.3
2019-02-26T06:42:09.718Z,22.3
2019-02-26T06:47:10.847Z,22.3
2019-02-26T06:52:19.615Z,22.2
2019-02-26T06:57:24.784Z,22.2
2019-02-26T07:02:31.200Z,22.3
2019-02-26T07:07:35.029Z,22.3
2019-02-26T07:12:45.419Z,22.4
2019-02-26T07:17:47.873Z,22.4
2019-02-26T07:22:53.365Z,22.4
2019-02-26T07:28:04.029Z,22.6
2019-02-26T07:33:15.527Z,22.6
2019-02-26T07:38:11.362Z,22.6
2019-02-26T07:43:23.578Z,22.7
2019-02-26T07:48:28.902Z,23.1
2019-02-26T07:53:27.652Z,23
2019-02-26T07:58:40.748Z,23.7
2019-02-26T08:08:48.903Z,23.9
2019-02-26T08:18:54.028Z,24.2
2019-02-26T08:23:54.766Z,24.3
2019-02-26T08:29:07.399Z,24.6
2019-02-26T08:34:05.792Z,24.5
2019-02-26T08:39:16.042Z,24.8
2019-02-26T08:44:11.021Z,24.8
2019-02-26T08:49:20.646Z,25
2019-02-26T08:54:28.810Z,25
2019-02-26T08:59:21.508Z,25.1
2019-02-26T09:04:26.911Z,25
2019-02-26T09:09:34.695Z,25.2
2019-02-26T09:14:47.552Z,25.4
2019-02-26T09:19:45.168Z,25.4
2019-02-26T09:24:56.909Z,25.5
2019-02-26T09:29:58.063Z,25.5
2019-02-26T09:35:06.636Z,25.5
2019-02-26T09:40:12.995Z,25.5
2019-02-26T09:45:26.036Z,25.5
2019-02-26T09:50:24.572Z,25.5
2019-02-26T09:55:30.100Z,25.4
2019-02-26T10:05:40.044Z,25.1
2019-02-26T10:10:43.652Z,25.2
2019-02-26T10:20:56.548Z,25.3
2019-02-26T10:26:08.314Z,25.3
2019-02-26T10:31:11.363Z,25.3
2019-02-26T10:36:13.384Z,25.4
2019-02-26T10:41:13.027Z,25.4
2019-02-26T10:46:19.549Z,25.5
2019-02-26T10:51:28.272Z,25.4
2019-02-26T10:56:44.812Z,24.5
2019-02-26T11:01:40.177Z,24.5
2019-02-26T11:06:48.080Z,24.6
2019-02-26T11:11:58.184Z,24.6
2019-02-26T11:17:00.792Z,24.5
2019-02-26T11:22:06.920Z,24.5
2019-02-26T11:27:12.598Z,24.4
2019-02-26T11:32:18.717Z,24.4
2019-02-26T11:37:29.478Z,24.4
2019-02-26T11:42:29.847Z,24.3
2019-02-26T11:47:41.296Z,24.3
2019-02-26T11:52:38.594Z,24.3
2019-02-26T11:57:50.800Z,24.1
2019-02-26T12:02:46.326Z,24
2019-02-26T12:07:58.808Z,23.8
2019-02-26T12:13:02.133Z,23.7
2019-02-26T12:17:59.993Z,23.8
2019-02-26T12:23:14.044Z,23.8
2019-02-26T12:28:16.051Z,23.8
2019-02-26T12:33:21.304Z,23.8
2019-02-26T12:38:26.578Z,23.7
2019-02-26T12:43:41.221Z,23.5
2019-02-26T12:50:42.417Z,23.5
2019-02-26T12:53:51.269Z,23.4
2019-02-26T12:58:55.627Z,23.4
2019-02-26T13:03:56.693Z,23.4
2019-02-26T13:08:52.652Z,23.4
2019-02-26T13:13:58.970Z,23.4
2019-02-26T13:19:06.424Z,23.3
2019-02-26T13:28:20.398Z,23.3
2019-02-26T13:29:35.531Z,23.3
2019-02-26T13:34:41.010Z,23.3
2019-02-26T13:39:47.544Z,23.2
2019-02-26T13:44:52.785Z,23.2
2019-02-26T13:49:57.873Z,23.2
2019-02-26T13:55:03.644Z,23.2
2019-02-26T14:00:08.666Z,23.1
2019-02-26T14:05:14.671Z,23.1
2019-02-26T14:10:20.367Z,23.1
2019-02-26T14:15:26.277Z,21
2019-02-26T14:20:32.261Z,21
2019-02-26T14:25:37.969Z,21.9
2019-02-26T14:30:43.228Z,22.4
2019-02-26T14:35:49.009Z,22.6
2019-02-26T14:40:55.560Z,22.8
2019-02-26T14:46:01.093Z,22.8
2019-02-26T14:51:07.847Z,22.9
2019-02-26T14:56:13.791Z,22.9
2019-02-26T15:01:19.269Z,22.9
2019-02-26T15:06:27.933Z,22.9
2019-02-26T15:11:33.738Z,22.9
2019-02-26T15:16:40.141Z,22.9
2019-02-26T15:21:45.776Z,22.8
2019-02-26T15:26:51.769Z,22.8
2019-02-26T15:31:57.803Z,22.8
2019-02-26T15:37:04.654Z,22.7
2019-02-26T15:42:10.632Z,22.7
2019-02-26T15:47:16.418Z,22.7
2019-02-26T15:52:24.165Z,22.6
2019-02-26T15:57:32.244Z,22.6
2019-02-26T16:02:38.800Z,22.6
2019-02-26T16:07:44.963Z,22.6
2019-02-26T16:12:50.416Z,22.6
2019-02-26T16:18:00.926Z,22.5
2019-02-26T16:22:56.974Z,22.5
2019-02-26T16:28:04.644Z,22.6
2019-02-26T16:33:14.509Z,22.5
2019-02-26T16:38:14.103Z,22.6
2019-02-26T16:43:20.051Z,22.6
2019-02-26T16:48:28.753Z,22.6
2019-02-26T16:53:36.026Z,22.6
2019-02-26T16:58:42.270Z,22.7
2019-02-26T17:03:48.210Z,22.7
2019-02-26T17:08:54.088Z,22.8
2019-02-26T17:19:05.328Z,23.2
2019-02-26T17:24:10.441Z,23.2
2019-02-26T17:29:20.756Z,23.1
2019-02-26T17:34:25.901Z,23.1
2019-02-26T17:39:31.275Z,23.2
2019-02-26T17:44:36.529Z,23.5
2019-02-26T17:49:42.284Z,23.6
2019-02-26T17:54:50.131Z,23.6
2019-02-26T17:59:56.050Z,23.5
2019-02-26T18:05:03.343Z,23.5
2019-02-26T18:10:12.476Z,23.5
2019-02-26T18:15:21.931Z,23.3
2019-02-26T18:20:29.820Z,23.2
2019-02-26T18:25:34.940Z,23.2
2019-02-26T18:30:40.116Z,23.2
2019-02-26T18:35:45.482Z,23.1
2019-02-26T18:40:51.202Z,23
2019-02-26T18:46:00.360Z,23
2019-02-26T18:51:04.924Z,22.8
2019-02-26T18:56:10.695Z,22.7
2019-02-26T19:01:15.916Z,22.6
2019-02-26T19:06:28.521Z,19.3
2019-02-26T19:11:34.123Z,19.2
2019-02-26T19:16:39.249Z,20.5
2019-02-26T19:21:45.416Z,22.4
2019-02-26T19:26:51.280Z,22.4
2019-02-26T19:31:57.456Z,22.6
2019-02-26T19:37:01.740Z,22.7
2019-02-26T19:42:07.323Z,22.8
2019-02-26T19:47:16.328Z,23.1
2019-02-26T19:52:21.794Z,23.1
2019-02-26T19:57:31.041Z,23.2
2019-02-26T20:02:35.708Z,23.1
2019-02-26T20:07:40.197Z,23.1
2019-02-26T20:12:46.101Z,23.1
2019-02-26T20:17:51.452Z,23.1
2019-02-26T20:22:57.818Z,23
2019-02-26T20:28:07.580Z,22.9
2019-02-26T20:33:08.767Z,22.9
2019-02-26T20:38:13.918Z,22.9
2019-02-26T20:43:19.324Z,22.9
2019-02-26T20:48:25.028Z,22.9
2019-02-26T20:53:31.997Z,22.8
2019-02-26T20:58:37.269Z,22.8
2019-02-26T21:03:43.341Z,22.8
2019-02-26T21:08:47.839Z,22.7
2019-02-26T21:13:53.782Z,22.7
2019-02-26T21:19:02.624Z,22.7
2019-02-26T21:24:08.535Z,22.6
2019-02-26T21:29:14.405Z,22.6
2019-02-26T21:34:19.905Z,22.6
2019-02-26T21:39:25.171Z,22.6
2019-02-26T21:44:30.731Z,22.5
2019-02-26T21:49:36.257Z,22.5
2019-02-26T21:54:43.892Z,22.5
2019-02-26T21:59:51.971Z,22.5
2019-02-26T22:04:56.692Z,22.5
2019-02-26T22:10:01.851Z,22.5
2019-02-26T22:15:02.170Z,22.5
2019-02-26T22:20:35.703Z,22.4
2019-02-26T22:25:18.617Z,22.4
2019-02-26T22:30:14.453Z,22.4
2019-02-26T22:35:19.699Z,22.4
2019-02-26T22:40:30.088Z,22.3
2019-02-26T22:45:29.783Z,22.3
2019-02-26T22:50:35.528Z,22.3
2019-02-26T22:55:41.662Z,22.3
2019-02-26T23:00:50.721Z,22.2
2019-02-26T23:06:01.051Z,22.2
2019-02-26T23:10:59.287Z,22.2
2019-02-26T23:16:04.361Z,22.2
2019-02-26T23:21:10.155Z,22.2
2019-02-26T23:26:16.369Z,22.2
2019-02-26T23:31:22.294Z,22.1
2019-02-26T23:36:30.454Z,22.1
2019-02-26T23:41:36.179Z,22.1
2019-02-26T23:46:41.668Z,22.1
2019-02-26T23:51:47.413Z,22.1
2019-02-26T23:56:54.450Z,22.1
